createdAt,value
2023-04-18T00:02:33.826Z,92281.84
2023-04-18T00:05:37.421Z,92289.31
2023-04-18T00:08:41.070Z,92283.91
2023-04-18T00:11:44.357Z,92286.28
2023-04-18T00:14:47.574Z,92284.81
2023-04-18T00:17:50.824Z,92295.66
2023-04-18T00:20:54.820Z,92294.28
2023-04-18T00:23:58.246Z,92280.25
2023-04-18T00:27:04.773Z,92290.19
2023-04-18T00:30:09.591Z,92271.06
2023-04-18T00:33:13.758Z,92269.31
2023-04-18T00:36:16.874Z,92262.91
2023-04-18T00:39:21.287Z,92248.22
2023-04-18T00:42:26.642Z,92247.66
2023-04-18T00:45:29.831Z,92238.63
2023-04-18T00:48:33.052Z,92233.63
2023-04-18T00:51:36.571Z,92234.59
2023-04-18T00:54:42.435Z,92224.34
2023-04-18T00:57:45.810Z,92220.56
2023-04-18T01:00:49.450Z,92214.28
2023-04-18T01:03:52.844Z,92212.63
2023-04-18T01:06:56.578Z,92200.50
2023-04-18T01:10:00.187Z,92203.13
2023-04-18T01:13:17.700Z,92205.13
2023-04-18T01:16:21.470Z,92211.69
2023-04-18T01:19:26.458Z,92204.47
2023-04-18T01:22:31.724Z,92208.28
2023-04-18T01:25:35.479Z,92196.06
2023-04-18T01:28:38.601Z,92202.69
2023-04-18T01:31:44.265Z,92193.59
2023-04-18T01:34:51.464Z,92210.53
2023-04-18T01:37:54.718Z,92208.59
2023-04-18T01:40:57.990Z,92214.44
2023-04-18T01:44:01.590Z,92218.97
2023-04-18T01:47:04.826Z,92221.53
2023-04-18T01:50:09.557Z,92216.91
2023-04-18T01:53:12.993Z,92218.72
2023-04-18T01:56:16.617Z,92214.72
2023-04-18T01:59:19.825Z,92208.84
2023-04-18T02:02:23.160Z,92196.53
2023-04-18T02:05:30.440Z,92157.66
2023-04-18T02:08:36.474Z,92143.31
2023-04-18T02:11:42.398Z,92134.25
2023-04-18T02:14:45.553Z,92131.00
2023-04-18T02:17:49.777Z,92124.53
2023-04-18T02:20:53.352Z,92112.25
2023-04-18T02:23:58.580Z,92109.72
2023-04-18T02:27:01.704Z,92107.16
2023-04-18T02:30:05.040Z,92092.22
2023-04-18T02:33:12.195Z,92079.91
2023-04-18T02:36:15.616Z,92074.69
2023-04-18T02:39:18.784Z,92075.38
2023-04-18T02:42:22.006Z,92077.31
2023-04-18T02:45:25.370Z,92062.34
2023-04-18T02:48:29.103Z,92056.50
2023-04-18T02:51:32.709Z,92044.19
2023-04-18T02:54:37.464Z,92034.44
2023-04-18T02:57:45.452Z,92033.78
2023-04-18T03:01:07.108Z,92024.00
2023-04-18T03:04:30.978Z,92015.63
2023-04-18T03:07:39.721Z,92008.47
2023-04-18T03:10:43.159Z,91994.81
2023-04-18T03:13:46.660Z,91996.75
2023-04-18T03:17:09.432Z,92001.97
2023-04-18T03:20:16.363Z,92001.97
2023-04-18T03:23:19.675Z,91990.91
2023-04-18T03:26:26.084Z,92001.31
2023-04-18T03:29:31.744Z,91998.09
2023-04-18T03:32:35.817Z,92001.34
2023-04-18T03:35:39.158Z,91998.09
2023-04-18T03:38:44.062Z,91993.56
2023-04-18T03:41:47.319Z,91996.75
2023-04-18T03:44:50.553Z,91992.84
2023-04-18T03:47:53.875Z,91994.13
2023-04-18T03:50:58.552Z,91988.97
2023-04-18T03:54:06.868Z,91985.09
2023-04-18T03:57:10.474Z,91980.56
2023-04-18T04:00:15.174Z,91975.38
2023-04-18T04:03:31.045Z,91984.47
2023-04-18T04:06:34.498Z,91979.25
2023-04-18T04:09:37.780Z,91966.28
2023-04-18T04:12:42.683Z,91961.72
2023-04-18T04:15:46.101Z,91962.31
2023-04-18T04:18:49.381Z,91959.63
2023-04-18T04:21:54.238Z,91958.88
2023-04-18T04:24:58.410Z,91947.16
2023-04-18T04:28:08.834Z,91941.28
2023-04-18T04:31:25.819Z,91942.75
2023-04-18T04:34:29.100Z,91940.22
2023-04-18T04:37:34.157Z,91944.13
2023-04-18T04:40:52.217Z,91930.47
2023-04-18T04:43:55.874Z,91932.41
2023-04-18T04:47:04.177Z,91932.41
2023-04-18T04:50:16.155Z,91934.91
2023-04-18T04:53:19.588Z,91931.69
2023-04-18T04:56:23.806Z,91940.22
2023-04-18T04:59:27.422Z,91936.97
2023-04-18T05:02:30.788Z,91945.97
2023-04-18T05:05:34.189Z,91959.41
2023-04-18T05:08:37.419Z,91963.97
2023-04-18T05:11:40.596Z,91972.00
2023-04-18T05:14:44.077Z,91988.94
2023-04-18T05:17:47.452Z,91979.91
2023-04-18T05:20:50.723Z,91980.53
2023-04-18T05:23:53.875Z,91955.81
2023-04-18T05:26:57.592Z,91934.38
2023-04-18T05:30:01.063Z,91942.84
2023-04-18T05:33:04.533Z,91938.88
2023-04-18T05:36:10.600Z,91945.91
2023-04-18T05:39:13.885Z,91940.84
2023-04-18T05:42:17.010Z,91928.56
2023-04-18T05:45:20.225Z,91940.28
2023-04-18T05:48:24.140Z,91939.00
2023-04-18T05:51:29.380Z,91934.47
2023-04-18T05:54:32.529Z,91937.72
2023-04-18T05:57:35.995Z,91940.94
2023-04-18T06:00:39.133Z,91937.03
2023-04-18T06:03:42.834Z,91933.09
2023-04-18T06:06:46.269Z,91925.84
2023-04-18T06:09:50.433Z,91928.38
2023-04-18T06:12:53.627Z,91940.00
2023-04-18T06:15:56.918Z,91936.81
2023-04-18T06:19:01.433Z,91933.00
2023-04-18T06:22:04.713Z,91943.34
2023-04-18T06:25:10.955Z,91943.31
2023-04-18T06:28:14.148Z,91942.69
2023-04-18T06:31:17.934Z,91936.91
2023-04-18T06:34:22.224Z,91944.13
2023-04-18T06:37:25.469Z,91940.25
2023-04-18T06:40:29.467Z,91943.53
2023-04-18T06:43:32.622Z,91931.84
2023-04-18T06:46:37.217Z,91926.66
2023-04-18T06:49:40.442Z,91921.44
2023-04-18T06:52:47.470Z,91923.38
2023-04-18T06:55:50.799Z,91926.03
2023-04-18T06:58:53.974Z,91927.34
2023-04-18T07:01:57.820Z,91927.31
2023-04-18T07:05:00.962Z,91925.41
2023-04-18T07:08:04.761Z,91924.75
2023-04-18T07:11:07.910Z,91919.56
2023-04-18T07:14:13.199Z,91917.63
2023-04-18T07:17:18.417Z,91912.41
2023-04-18T07:20:22.103Z,91906.59
2023-04-18T07:23:25.518Z,91896.78
2023-04-18T07:26:28.755Z,91898.09
2023-04-18T07:29:32.052Z,91903.28
2023-04-18T07:32:35.563Z,91890.97
2023-04-18T07:35:38.842Z,91882.53
2023-04-18T07:38:42.192Z,91875.31
2023-04-18T07:41:45.695Z,91869.41
2023-04-18T07:44:50.196Z,91870.63
2023-04-18T07:47:53.536Z,91860.72
2023-04-18T07:50:56.739Z,91856.72
2023-04-18T07:54:00.981Z,91854.88
2023-04-18T07:57:04.218Z,91847.69
2023-04-18T08:00:09.075Z,91860.63
2023-04-18T08:03:18.126Z,91848.22
2023-04-18T08:06:22.128Z,91852.09
2023-04-18T08:09:25.663Z,91844.03
2023-04-18T08:12:28.820Z,91842.44
2023-04-18T08:15:33.223Z,91844.22
2023-04-18T08:18:37.146Z,91839.53
2023-04-18T08:21:40.365Z,91833.63
2023-04-18T08:24:57.461Z,91824.44
2023-04-18T08:28:06.829Z,91824.06
2023-04-18T08:31:13.772Z,91823.94
2023-04-18T08:34:17.050Z,91814.59
2023-04-18T08:37:20.217Z,91826.06
2023-04-18T08:40:23.563Z,91825.69
2023-04-18T08:43:26.712Z,91832.91
2023-04-18T08:46:30.839Z,91828.25
2023-04-18T08:49:34.328Z,91834.63
2023-04-18T08:52:38.465Z,91828.78
2023-04-18T08:55:42.685Z,91828.66
2023-04-18T08:58:45.928Z,91823.88
2023-04-18T09:01:57.663Z,91824.31
2023-04-18T09:05:00.952Z,91820.41
2023-04-18T09:08:24.681Z,91825.44
2023-04-18T09:11:29.870Z,91816.84
2023-04-18T09:14:33.487Z,91816.13
2023-04-18T09:17:38.853Z,91813.38
2023-04-18T09:20:42.792Z,91810.13
2023-04-18T09:23:48.095Z,91805.53
2023-04-18T09:26:52.061Z,91813.44
2023-04-18T09:29:57.746Z,91812.94
2023-04-18T09:33:06.286Z,91817.59
2023-04-18T09:36:20.985Z,91818.16
2023-04-18T09:39:30.195Z,91818.16
2023-04-18T09:42:37.836Z,91814.25
2023-04-18T09:45:41.119Z,91808.50
2023-04-18T09:48:44.497Z,91810.69
2023-04-18T09:51:47.829Z,91802.94
2023-04-18T09:54:58.878Z,91797.66
2023-04-18T09:58:04.518Z,91806.72
2023-04-18T10:01:08.198Z,91799.72
2023-04-18T10:04:13.803Z,91800.53
2023-04-18T10:07:18.301Z,91809.22
2023-04-18T10:10:22.053Z,91819.06
2023-04-18T10:13:27.762Z,91819.19
2023-04-18T10:16:34.108Z,91830.28
2023-04-18T10:19:42.705Z,91842.66
2023-04-18T10:22:45.890Z,91851.81
2023-04-18T10:25:50.047Z,91853.22
2023-04-18T10:29:01.432Z,91853.97
2023-04-18T10:32:07.984Z,91861.91
2023-04-18T10:35:11.878Z,91876.97
2023-04-18T10:38:18.240Z,91877.00
2023-04-18T10:41:29.377Z,91875.09
2023-04-18T10:44:32.588Z,91879.06
2023-04-18T10:47:35.886Z,91878.47
2023-04-18T10:51:19.238Z,91886.97
2023-04-18T10:54:52.140Z,91900.66
2023-04-18T10:57:59.168Z,91921.47
2023-04-18T11:01:05.505Z,91923.47
2023-04-18T11:04:14.542Z,91930.59
2023-04-18T11:07:18.596Z,91931.88
2023-04-18T11:10:24.999Z,91926.69
2023-04-18T11:13:28.149Z,91923.47
2023-04-18T11:16:33.316Z,91938.38
2023-04-18T11:19:36.457Z,91942.25
2023-04-18T11:22:47.730Z,91940.97
2023-04-18T11:25:55.425Z,91951.38
2023-04-18T11:28:59.352Z,91952.00
2023-04-18T11:32:02.694Z,91940.97
2023-04-18T11:35:06.369Z,91936.44
2023-04-18T11:38:12.011Z,91946.16
2023-04-18T11:41:16.288Z,91944.19
2023-04-18T11:44:25.298Z,91942.25
2023-04-18T11:47:34.999Z,91938.38
2023-04-18T11:50:38.418Z,91931.22
2023-04-18T11:53:41.829Z,91911.09
2023-04-18T11:56:49.743Z,91900.69
2023-04-18T11:59:58.368Z,91891.56
2023-04-18T12:03:05.297Z,91888.91
2023-04-18T12:06:08.737Z,91894.03
2023-04-18T12:09:15.922Z,91887.50
2023-04-18T12:12:20.233Z,91888.09
2023-04-18T12:15:27.926Z,91887.38
2023-04-18T12:18:32.088Z,91878.91
2023-04-18T12:21:35.238Z,91870.38
2023-04-18T12:24:38.594Z,91859.88
2023-04-18T12:27:52.830Z,91848.16
2023-04-18T12:30:56.372Z,91842.88
2023-04-18T12:34:00.759Z,91832.47
2023-04-18T12:37:05.607Z,91825.34
2023-04-18T12:40:09.382Z,91830.53
2023-04-18T12:43:12.688Z,91856.38
2023-04-18T12:46:15.946Z,91856.31
2023-04-18T12:49:19.366Z,91859.50
2023-04-18T12:52:22.525Z,91887.25
2023-04-18T12:55:25.827Z,91906.00
2023-04-18T12:58:29.164Z,91918.28
2023-04-18T13:01:32.442Z,91921.47
2023-04-18T13:04:36.209Z,91913.72
2023-04-18T13:07:43.996Z,91917.66
2023-04-18T13:10:48.230Z,91931.31
2023-04-18T13:13:51.707Z,91933.19
2023-04-18T13:16:54.899Z,91926.53
2023-04-18T13:19:58.069Z,91901.06
2023-04-18T13:23:03.032Z,91876.97
2023-04-18T13:26:06.525Z,91874.38
2023-04-18T13:29:09.857Z,91874.56
2023-04-18T13:32:14.027Z,91860.56
2023-04-18T13:35:17.234Z,91849.03
2023-04-18T13:38:20.357Z,91844.56
2023-04-18T13:41:24.140Z,91845.88
2023-04-18T13:44:27.450Z,91854.25
2023-04-18T13:47:31.172Z,91859.41
2023-04-18T13:50:34.310Z,91858.72
2023-04-18T13:53:41.845Z,91845.78
2023-04-18T13:56:45.362Z,91825.78
2023-04-18T13:59:54.525Z,91844.44
2023-04-18T14:03:02.000Z,91845.66
2023-04-18T14:06:06.397Z,91835.31
2023-04-18T14:09:09.611Z,91843.03
2023-04-18T14:12:12.827Z,91832.69
2023-04-18T14:15:16.007Z,91828.78
2023-04-18T14:18:22.245Z,91835.91
2023-04-18T14:21:25.501Z,91830.69
2023-04-18T14:24:29.059Z,91826.13
2023-04-18T14:27:33.550Z,91822.00
2023-04-18T14:30:37.395Z,91802.38
2023-04-18T14:33:41.285Z,91799.00
2023-04-18T14:36:44.499Z,91802.16
2023-04-18T14:39:47.952Z,91806.06
2023-04-18T14:42:51.498Z,91807.31
2023-04-18T14:45:54.807Z,91808.44
2023-04-18T14:48:58.559Z,91801.28
2023-04-18T14:52:01.726Z,91795.50
2023-04-18T14:55:06.032Z,91783.28
2023-04-18T14:58:09.176Z,91784.66
2023-04-18T15:01:12.366Z,91781.47
2023-04-18T15:04:16.177Z,91782.75
2023-04-18T15:07:19.689Z,91789.16
2023-04-18T15:10:23.178Z,91781.91
2023-04-18T15:13:26.280Z,91772.13
2023-04-18T15:16:29.632Z,91772.03
2023-04-18T15:19:33.025Z,91776.63
2023-04-18T15:22:36.796Z,91770.31
2023-04-18T15:25:40.133Z,91767.25
2023-04-18T15:28:43.667Z,91766.09
2023-04-18T15:31:47.494Z,91749.34
2023-04-18T15:34:50.716Z,91745.41
2023-04-18T15:37:54.804Z,91758.25
2023-04-18T15:40:58.029Z,91766.66
2023-04-18T15:44:01.179Z,91760.16
2023-04-18T15:47:04.354Z,91764.53
2023-04-18T15:50:08.755Z,91751.06
2023-04-18T15:53:12.214Z,91753.75
2023-04-18T15:56:15.611Z,91759.63
2023-04-18T15:59:18.801Z,91738.94
2023-04-18T16:02:22.341Z,91724.53
2023-04-18T16:05:26.226Z,91719.97
2023-04-18T16:08:31.312Z,91722.63
2023-04-18T16:11:36.122Z,91725.19
2023-04-18T16:14:39.453Z,91710.38
2023-04-18T16:17:42.753Z,91716.16
2023-04-18T16:20:46.510Z,91703.91
2023-04-18T16:23:49.832Z,91689.69
2023-04-18T16:26:54.165Z,91683.09
2023-04-18T16:29:57.529Z,91686.25
2023-04-18T16:33:00.777Z,91683.69
2023-04-18T16:36:04.198Z,91668.97
2023-04-18T16:39:07.382Z,91649.84
2023-04-18T16:42:11.055Z,91649.31
2023-04-18T16:45:15.422Z,91666.06
2023-04-18T16:48:18.622Z,91671.19
2023-04-18T16:51:21.734Z,91663.53
2023-04-18T16:54:24.857Z,91664.25
2023-04-18T16:57:28.077Z,91662.91
2023-04-18T17:00:31.534Z,91663.50
2023-04-18T17:03:35.437Z,91651.28
2023-04-18T17:06:38.757Z,91641.59
2023-04-18T17:09:42.424Z,91626.66
2023-04-18T17:12:49.507Z,91623.38
2023-04-18T17:15:52.736Z,91624.66
2023-04-18T17:18:55.934Z,91651.16
2023-04-18T17:21:59.400Z,91658.38
2023-04-18T17:25:02.595Z,91656.44
2023-04-18T17:28:06.104Z,91666.63
2023-04-18T17:31:09.270Z,91678.84
2023-04-18T17:34:12.588Z,91659.00
2023-04-18T17:37:17.636Z,91652.03
2023-04-18T17:40:20.955Z,91647.56
2023-04-18T17:43:24.080Z,91644.34
2023-04-18T17:46:27.419Z,91634.03
2023-04-18T17:49:35.117Z,91608.97
2023-04-18T17:52:39.575Z,91599.41
2023-04-18T17:55:42.731Z,91593.00
2023-04-18T17:58:46.116Z,91594.88
2023-04-18T18:01:49.267Z,91592.25
2023-04-18T18:04:52.484Z,91583.84
2023-04-18T18:07:56.880Z,91566.97
2023-04-18T18:11:01.916Z,91569.53
2023-04-18T18:14:05.099Z,91578.56
2023-04-18T18:17:08.268Z,91596.66
2023-04-18T18:20:11.456Z,91616.69
2023-04-18T18:23:14.640Z,91616.72
2023-04-18T18:26:17.774Z,91600.59
2023-04-18T18:29:21.256Z,91600.56
2023-04-18T18:32:24.622Z,91595.41
2023-04-18T18:35:27.872Z,91579.91
2023-04-18T18:38:31.039Z,91575.44
2023-04-18T18:41:34.173Z,91573.53
2023-04-18T18:44:37.283Z,91569.63
2023-04-18T18:47:40.586Z,91567.53
2023-04-18T18:50:43.878Z,91569.44
2023-04-18T18:53:47.577Z,91551.31
2023-04-18T18:56:51.924Z,91557.56
2023-04-18T18:59:55.933Z,91557.41
2023-04-18T19:02:59.381Z,91536.72
2023-04-18T19:06:04.567Z,91525.09
2023-04-18T19:09:07.866Z,91538.63
2023-04-18T19:12:11.185Z,91537.97
2023-04-18T19:15:14.342Z,91538.03
2023-04-18T19:18:20.025Z,91536.19
2023-04-18T19:21:23.266Z,91547.84
2023-04-18T19:24:26.436Z,91549.28
2023-04-18T19:27:29.544Z,91536.47
2023-04-18T19:30:33.346Z,91533.34
2023-04-18T19:33:36.617Z,91548.91
2023-04-18T19:36:39.825Z,91550.28
2023-04-18T19:39:42.962Z,91544.53
2023-04-18T19:42:46.840Z,91543.28
2023-04-18T19:45:53.781Z,91549.13
2023-04-18T19:48:58.158Z,91527.84
2023-04-18T19:52:01.359Z,91507.22
2023-04-18T19:55:04.910Z,91478.16
2023-04-18T19:58:08.009Z,91515.00
2023-04-18T20:01:12.647Z,91539.56
2023-04-18T20:04:15.961Z,91509.84
2023-04-18T20:07:19.191Z,91507.25
2023-04-18T20:10:25.528Z,91506.56
2023-04-18T20:13:28.666Z,91502.72
2023-04-18T20:16:32.421Z,91503.91
2023-04-18T20:19:35.586Z,91514.84
2023-04-18T20:22:40.910Z,91498.72
2023-04-18T20:25:44.216Z,91492.22
2023-04-18T20:31:50.412Z,91452.72
2023-04-18T20:34:54.139Z,91461.75
2023-04-18T20:37:58.413Z,91479.88
2023-04-18T20:41:01.673Z,91500.56
2023-04-18T20:44:10.696Z,91511.63
2023-04-18T20:47:15.482Z,91514.91
2023-04-18T20:50:19.166Z,91489.75
2023-04-18T20:53:23.148Z,91465.19
2023-04-18T20:56:26.406Z,91432.91
2023-04-18T20:59:29.554Z,91413.50
2023-04-18T21:02:32.990Z,91444.47
2023-04-18T21:05:36.407Z,91445.13
2023-04-18T21:08:40.202Z,91432.25
2023-04-18T21:11:43.376Z,91390.31
2023-04-18T21:14:46.517Z,91365.81
2023-04-18T21:17:51.716Z,91370.97
2023-04-18T21:20:55.151Z,91369.03
2023-04-18T21:23:58.472Z,91380.03
2023-04-18T21:27:03.143Z,91363.91
2023-04-18T21:30:07.277Z,91384.59
2023-04-18T21:33:10.437Z,91391.69
2023-04-18T21:36:13.548Z,91403.34
2023-04-18T21:39:16.675Z,91403.34
2023-04-18T21:42:19.779Z,91383.28
2023-04-18T21:45:23.102Z,91396.81
2023-04-18T21:48:26.263Z,91442.66
2023-04-18T21:51:29.368Z,91460.78
2023-04-18T21:54:32.616Z,91456.31
2023-04-18T21:57:36.464Z,91449.84
2023-04-18T22:00:39.750Z,91442.09
2023-04-18T22:03:43.157Z,91433.69
2023-04-18T22:06:46.699Z,91421.41
2023-04-18T22:09:50.915Z,91402.00
2023-04-18T22:12:54.716Z,91378.75
2023-04-18T22:15:58.792Z,91371.00
2023-04-18T22:19:02.224Z,91385.22
2023-04-18T22:22:06.566Z,91387.81
2023-04-18T22:25:12.075Z,91368.47
2023-04-18T22:28:15.433Z,91366.53
2023-04-18T22:31:18.742Z,91379.47
2023-04-18T22:34:22.251Z,91364.59
2023-04-18T22:37:26.058Z,91338.75
2023-04-18T22:40:29.598Z,91345.22
2023-04-18T22:43:50.511Z,91358.13
2023-04-18T22:46:55.473Z,91371.72
2023-04-18T22:50:01.965Z,91356.19
2023-04-18T22:53:05.344Z,91357.47
2023-04-18T22:56:09.140Z,91371.06
2023-04-18T22:59:13.356Z,91376.88
2023-04-18T23:02:17.093Z,91389.78
2023-04-18T23:05:21.073Z,91393.66
2023-04-18T23:08:25.058Z,91392.88
2023-04-18T23:11:28.248Z,91387.63
2023-04-18T23:14:32.716Z,91371.44
2023-04-18T23:17:36.373Z,91401.09
2023-04-18T23:20:39.759Z,91385.66
2023-04-18T23:23:43.202Z,91385.69
2023-04-18T23:26:47.639Z,91406.38
2023-04-18T23:29:51.247Z,91397.38
2023-04-18T23:32:54.827Z,91413.53
2023-04-18T23:35:58.409Z,91407.75
2023-04-18T23:39:01.846Z,91404.56
2023-04-18T23:42:05.526Z,91417.50
2023-04-18T23:45:09.437Z,91420.13
2023-04-18T23:48:13.251Z,91438.84
2023-04-18T23:51:17.057Z,91451.75
2023-04-18T23:54:20.262Z,91445.97
2023-04-18T23:57:23.412Z,91438.22
